sensor_id;sensor_type;location;lat;lon;timestamp;pressure;altitude;pressure_sealevel;temperature;humidity
83027;BME280;72842;56.038;12.706;2024-01-07T00:01:34;102594.00;;;-2.89;57.10
83027;BME280;72842;56.038;12.706;2024-01-07T00:03:59;102595.75;;;-2.88;57.12
83027;BME280;72842;56.038;12.706;2024-01-07T00:06:25;102593.13;;;-2.88;57.17
83027;BME280;72842;56.038;12.706;2024-01-07T00:08:50;102597.50;;;-2.88;57.06
83027;BME280;72842;56.038;12.706;2024-01-07T00:11:16;102594.00;;;-2.89;57.10
83027;BME280;72842;56.038;12.706;2024-01-07T00:13:41;102597.50;;;-2.88;56.93
83027;BME280;72842;56.038;12.706;2024-01-07T00:16:06;102592.25;;;-2.88;56.98
83027;BME280;72842;56.038;12.706;2024-01-07T00:18:32;102599.25;;;-2.89;57.24
83027;BME280;72842;56.038;12.706;2024-01-07T00:20:57;102585.22;;;-2.94;56.59
83027;BME280;72842;56.038;12.706;2024-01-07T00:23:23;102597.50;;;-2.88;57.12
83027;BME280;72842;56.038;12.706;2024-01-07T00:25:48;102593.97;;;-2.90;57.13
83027;BME280;72842;56.038;12.706;2024-01-07T00:28:14;102601.84;;;-2.89;57.20
83027;BME280;72842;56.038;12.706;2024-01-07T00:30:39;102598.31;;;-2.91;57.15
83027;BME280;72842;56.038;12.706;2024-01-07T00:33:04;102601.81;;;-2.90;57.16
83027;BME280;72842;56.038;12.706;2024-01-07T00:35:30;102606.19;;;-2.91;57.23
83027;BME280;72842;56.038;12.706;2024-01-07T00:37:55;102592.22;;;-2.94;57.43
83027;BME280;72842;56.038;12.706;2024-01-07T00:40:22;102604.44;;;-2.93;57.02
83027;BME280;72842;56.038;12.706;2024-01-07T00:42:48;102604.44;;;-2.93;57.29
83027;BME280;72842;56.038;12.706;2024-01-07T00:45:13;102598.28;;;-2.99;56.98
83027;BME280;72842;56.038;12.706;2024-01-07T00:47:39;102611.38;;;-2.95;57.07
83027;BME280;72842;56.038;12.706;2024-01-07T00:50:04;102605.25;;;-2.96;56.81
83027;BME280;72842;56.038;12.706;2024-01-07T00:52:30;102613.13;;;-2.96;57.06
83027;BME280;72842;56.038;12.706;2024-01-07T00:54:55;102616.63;;;-2.97;57.37
83027;BME280;72842;56.038;12.706;2024-01-07T00:57:22;102616.63;;;-2.97;57.12
83027;BME280;72842;56.038;12.706;2024-01-07T00:59:47;102620.09;;;-2.98;57.25
83027;BME280;72842;56.038;12.706;2024-01-07T01:02:13;102614.88;;;-2.98;57.20
83027;BME280;72842;56.038;12.706;2024-01-07T01:04:39;102616.59;;;-2.99;57.03
83027;BME280;72842;56.038;12.706;2024-01-07T01:07:05;102613.13;;;-2.99;57.10
83027;BME280;72842;56.038;12.706;2024-01-07T01:09:30;102619.22;;;-3.00;56.86
83027;BME280;72842;56.038;12.706;2024-01-07T01:11:56;102612.19;;;-3.04;57.15
83027;BME280;72842;56.038;12.706;2024-01-07T01:14:21;102613.97;;;-3.00;57.02
83027;BME280;72842;56.038;12.706;2024-01-07T01:16:46;102607.00;;;-3.01;57.04
83027;BME280;72842;56.038;12.706;2024-01-07T01:19:12;102607.84;;;-3.02;57.18
83027;BME280;72842;56.038;12.706;2024-01-07T01:21:37;102620.09;;;-3.01;56.95
83027;BME280;72842;56.038;12.706;2024-01-07T01:24:03;102620.09;;;-3.01;57.05
83027;BME280;72842;56.038;12.706;2024-01-07T01:26:28;102615.69;;;-3.02;57.08
83027;BME280;72842;56.038;12.706;2024-01-07T01:28:54;102621.84;;;-3.02;57.09
83027;BME280;72842;56.038;12.706;2024-01-07T01:31:19;102623.53;;;-3.02;57.05
83027;BME280;72842;56.038;12.706;2024-01-07T01:33:44;102627.91;;;-3.03;56.87
83027;BME280;72842;56.038;12.706;2024-01-07T01:36:10;102630.56;;;-3.01;56.94
83027;BME280;72842;56.038;12.706;2024-01-07T01:38:35;102631.41;;;-3.04;56.95
83027;BME280;72842;56.038;12.706;2024-01-07T01:41:01;102637.50;;;-3.03;56.93
83027;BME280;72842;56.038;12.706;2024-01-07T01:43:28;102620.03;;;-3.04;57.13
83027;BME280;72842;56.038;12.706;2024-01-07T01:45:54;102633.13;;;-3.04;57.31
83027;BME280;72842;56.038;12.706;2024-01-07T01:48:21;102634.00;;;-3.05;57.15
83027;BME280;72842;56.038;12.706;2024-01-07T01:50:47;102639.25;;;-3.05;57.29
83027;BME280;72842;56.038;12.706;2024-01-07T01:53:14;102633.13;;;-3.07;57.49
83027;BME280;72842;56.038;12.706;2024-01-07T01:55:40;102642.72;;;-3.08;57.26
83027;BME280;72842;56.038;12.706;2024-01-07T01:58:11;102643.56;;;-3.10;57.23
83027;BME280;72842;56.038;12.706;2024-01-07T02:00:38;102639.16;;;-3.14;57.42
83027;BME280;72842;56.038;12.706;2024-01-07T02:03:04;102649.66;;;-3.13;56.80
83027;BME280;72842;56.038;12.706;2024-01-07T02:05:29;102646.16;;;-3.13;56.97
83027;BME280;72842;56.038;12.706;2024-01-07T02:07:55;102645.28;;;-3.14;57.16
83027;BME280;72842;56.038;12.706;2024-01-07T02:10:22;102652.22;;;-3.14;57.11
83027;BME280;72842;56.038;12.706;2024-01-07T02:12:47;102639.16;;;-3.14;57.03
83027;BME280;72842;56.038;12.706;2024-01-07T02:15:13;102639.06;;;-3.23;57.38
83027;BME280;72842;56.038;12.706;2024-01-07T02:17:39;102644.38;;;-3.14;57.35
83027;BME280;72842;56.038;12.706;2024-01-07T02:20:05;102647.88;;;-3.15;56.73
83027;BME280;72842;56.038;12.706;2024-01-07T02:22:30;102645.25;;;-3.17;57.19
83027;BME280;72842;56.038;12.706;2024-01-07T02:24:56;102645.22;;;-3.20;56.56
83027;BME280;72842;56.038;12.706;2024-01-07T02:27:21;102652.22;;;-3.17;57.23
83027;BME280;72842;56.038;12.706;2024-01-07T02:29:46;102651.34;;;-3.18;57.02
83027;BME280;72842;56.038;12.706;2024-01-07T02:32:12;102660.06;;;-3.17;56.96
83027;BME280;72842;56.038;12.706;2024-01-07T02:34:37;102665.31;;;-3.17;56.99
83027;BME280;72842;56.038;12.706;2024-01-07T02:37:03;102649.59;;;-3.17;56.97
83027;BME280;72842;56.038;12.706;2024-01-07T02:39:28;102655.72;;;-3.18;57.06
83027;BME280;72842;56.038;12.706;2024-01-07T02:41:54;102665.31;;;-3.19;56.92
83027;BME280;72842;56.038;12.706;2024-01-07T02:44:19;102662.69;;;-3.19;57.26
83027;BME280;72842;56.038;12.706;2024-01-07T02:46:44;102667.06;;;-3.19;56.91
83027;BME280;72842;56.038;12.706;2024-01-07T02:49:12;102667.00;;;-3.21;57.12
83027;BME280;72842;56.038;12.706;2024-01-07T02:51:37;102669.63;;;-3.21;57.22
83027;BME280;72842;56.038;12.706;2024-01-07T02:54:03;102670.50;;;-3.22;57.10
83027;BME280;72842;56.038;12.706;2024-01-07T02:56:28;102674.84;;;-3.22;56.90
83027;BME280;72842;56.038;12.706;2024-01-07T02:58:54;102677.47;;;-3.22;56.88
83027;BME280;72842;56.038;12.706;2024-01-07T03:01:22;102680.97;;;-3.22;56.78
83027;BME280;72842;56.038;12.706;2024-01-07T03:03:48;102679.22;;;-3.23;57.02
83027;BME280;72842;56.038;12.706;2024-01-07T03:06:13;102680.97;;;-3.22;56.63
83027;BME280;72842;56.038;12.706;2024-01-07T03:08:39;102680.97;;;-3.23;56.92
83027;BME280;72842;56.038;12.706;2024-01-07T03:11:05;102685.31;;;-3.22;57.01
83027;BME280;72842;56.038;12.706;2024-01-07T03:13:31;102685.31;;;-3.22;57.01
83027;BME280;72842;56.038;12.706;2024-01-07T03:15:56;102677.47;;;-3.24;57.09
83027;BME280;72842;56.038;12.706;2024-01-07T03:18:22;102682.72;;;-3.22;56.97
83027;BME280;72842;56.038;12.706;2024-01-07T03:20:48;102683.56;;;-3.23;57.15
83027;BME280;72842;56.038;12.706;2024-01-07T03:23:13;102688.81;;;-3.23;57.38
83027;BME280;72842;56.038;12.706;2024-01-07T03:25:38;102687.06;;;-3.23;56.84
83027;BME280;72842;56.038;12.706;2024-01-07T03:28:04;102682.69;;;-3.24;57.14
83027;BME280;72842;56.038;12.706;2024-01-07T03:30:29;102684.44;;;-3.24;56.95
83027;BME280;72842;56.038;12.706;2024-01-07T03:32:55;102676.56;;;-3.26;56.67
83027;BME280;72842;56.038;12.706;2024-01-07T03:35:20;102674.84;;;-3.26;57.13
83027;BME280;72842;56.038;12.706;2024-01-07T03:37:47;102681.81;;;-3.26;56.87
83027;BME280;72842;56.038;12.706;2024-01-07T03:40:12;102670.38;;;-3.34;56.88
83027;BME280;72842;56.038;12.706;2024-01-07T03:42:38;102684.38;;;-3.29;56.64
83027;BME280;72842;56.038;12.706;2024-01-07T03:45:04;102680.00;;;-3.30;56.74
83027;BME280;72842;56.038;12.706;2024-01-07T03:47:30;102691.34;;;-3.30;56.81
83027;BME280;72842;56.038;12.706;2024-01-07T03:49:56;102689.56;;;-3.34;56.79
83027;BME280;72842;56.038;12.706;2024-01-07T03:52:22;102685.25;;;-3.30;56.58
83027;BME280;72842;56.038;12.706;2024-01-07T03:54:47;102687.88;;;-3.29;56.81
83027;BME280;72842;56.038;12.706;2024-01-07T03:57:13;102693.97;;;-3.30;56.69
83027;BME280;72842;56.038;12.706;2024-01-07T03:59:38;102697.47;;;-3.29;56.70
83027;BME280;72842;56.038;12.706;2024-01-07T04:02:04;102698.34;;;-3.29;56.81
83027;BME280;72842;56.038;12.706;2024-01-07T04:04:29;102693.97;;;-3.31;56.83
83027;BME280;72842;56.038;12.706;2024-01-07T04:06:55;102695.72;;;-3.30;56.84
83027;BME280;72842;56.038;12.706;2024-01-07T04:09:20;102692.22;;;-3.29;57.24
83027;BME280;72842;56.038;12.706;2024-01-07T04:11:46;102696.59;;;-3.30;56.98
83027;BME280;72842;56.038;12.706;2024-01-07T04:14:14;102706.19;;;-3.30;56.70
83027;BME280;72842;56.038;12.706;2024-01-07T04:16:39;102700.06;;;-3.32;56.37
83027;BME280;72842;56.038;12.706;2024-01-07T04:19:04;102702.69;;;-3.31;56.81
83027;BME280;72842;56.038;12.706;2024-01-07T04:21:30;102700.06;;;-3.31;56.75
83027;BME280;72842;56.038;12.706;2024-01-07T04:23:55;102704.44;;;-3.31;56.50
83027;BME280;72842;56.038;12.706;2024-01-07T04:26:21;102707.94;;;-3.32;56.93
83027;BME280;72842;56.038;12.706;2024-01-07T04:28:46;102708.75;;;-3.33;56.63
83027;BME280;72842;56.038;12.706;2024-01-07T04:31:11;102701.75;;;-3.37;56.68
83027;BME280;72842;56.038;12.706;2024-01-07T04:33:37;102700.91;;;-3.35;56.64
83027;BME280;72842;56.038;12.706;2024-01-07T04:36:02;102712.22;;;-3.36;56.27
83027;BME280;72842;56.038;12.706;2024-01-07T04:38:29;102707.00;;;-3.36;56.22
83027;BME280;72842;56.038;12.706;2024-01-07T04:40:54;102710.47;;;-3.37;56.83
83027;BME280;72842;56.038;12.706;2024-01-07T04:43:20;102706.06;;;-3.41;56.19
83027;BME280;72842;56.038;12.706;2024-01-07T04:45:46;102712.16;;;-3.40;56.64
83027;BME280;72842;56.038;12.706;2024-01-07T04:48:12;102720.91;;;-3.40;56.21
83027;BME280;72842;56.038;12.706;2024-01-07T04:50:39;102722.69;;;-3.39;56.42
83027;BME280;72842;56.038;12.706;2024-01-07T04:53:05;102725.28;;;-3.39;56.80
83027;BME280;72842;56.038;12.706;2024-01-07T04:55:30;102727.88;;;-3.40;56.00
83027;BME280;72842;56.038;12.706;2024-01-07T04:57:56;102743.56;;;-3.42;56.23
83027;BME280;72842;56.038;12.706;2024-01-07T05:00:21;102747.94;;;-3.41;56.02
83027;BME280;72842;56.038;12.706;2024-01-07T05:02:47;102738.31;;;-3.45;55.90
83027;BME280;72842;56.038;12.706;2024-01-07T05:05:13;102741.81;;;-3.41;56.21
83027;BME280;72842;56.038;12.706;2024-01-07T05:07:38;102755.75;;;-3.44;56.54
83027;BME280;72842;56.038;12.706;2024-01-07T05:10:04;102757.50;;;-3.43;56.63
83027;BME280;72842;56.038;12.706;2024-01-07T05:12:30;102759.25;;;-3.45;56.26
83027;BME280;72842;56.038;12.706;2024-01-07T05:14:55;102762.75;;;-3.43;56.73
83027;BME280;72842;56.038;12.706;2024-01-07T05:17:20;102763.59;;;-3.44;56.68
83027;BME280;72842;56.038;12.706;2024-01-07T05:19:46;102755.75;;;-3.45;56.71
83027;BME280;72842;56.038;12.706;2024-01-07T05:22:11;102757.47;;;-3.46;56.25
83027;BME280;72842;56.038;12.706;2024-01-07T05:24:37;102753.94;;;-3.48;56.60
83027;BME280;72842;56.038;12.706;2024-01-07T05:27:05;102752.22;;;-3.47;56.91
83027;BME280;72842;56.038;12.706;2024-01-07T05:29:31;102749.56;;;-3.50;56.11
83027;BME280;72842;56.038;12.706;2024-01-07T05:31:59;102755.69;;;-3.48;56.32
83027;BME280;72842;56.038;12.706;2024-01-07T05:34:28;102757.44;;;-3.49;56.41
83027;BME280;72842;56.038;12.706;2024-01-07T05:36:54;102757.41;;;-3.50;56.24
83027;BME280;72842;56.038;12.706;2024-01-07T05:39:19;102765.22;;;-3.52;56.01
83027;BME280;72842;56.038;12.706;2024-01-07T05:41:45;102765.28;;;-3.50;56.01
83027;BME280;72842;56.038;12.706;2024-01-07T05:44:11;102764.41;;;-3.51;56.02
83027;BME280;72842;56.038;12.706;2024-01-07T05:46:39;102763.47;;;-3.53;56.19
83027;BME280;72842;56.038;12.706;2024-01-07T05:49:05;102760.00;;;-3.52;56.09
83027;BME280;72842;56.038;12.706;2024-01-07T05:51:31;102752.97;;;-3.58;56.08
83027;BME280;72842;56.038;12.706;2024-01-07T05:53:56;102767.84;;;-3.54;56.72
83027;BME280;72842;56.038;12.706;2024-01-07T05:56:22;102767.84;;;-3.54;56.17
83027;BME280;72842;56.038;12.706;2024-01-07T05:58:47;102770.44;;;-3.54;56.70
83027;BME280;72842;56.038;12.706;2024-01-07T06:01:19;102765.19;;;-3.55;56.79
83027;BME280;72842;56.038;12.706;2024-01-07T06:03:44;102770.44;;;-3.55;56.40
83027;BME280;72842;56.038;12.706;2024-01-07T06:06:12;102774.78;;;-3.56;56.20
83027;BME280;72842;56.038;12.706;2024-01-07T06:08:37;102769.56;;;-3.56;56.20
83027;BME280;72842;56.038;12.706;2024-01-07T06:11:03;102766.94;;;-3.57;56.80
83027;BME280;72842;56.038;12.706;2024-01-07T06:13:28;102773.91;;;-3.56;56.60
83027;BME280;72842;56.038;12.706;2024-01-07T06:15:54;102769.50;;;-3.59;56.44
83027;BME280;72842;56.038;12.706;2024-01-07T06:18:19;102777.34;;;-3.59;56.28
83027;BME280;72842;56.038;12.706;2024-01-07T06:20:45;102785.19;;;-3.59;56.70
83027;BME280;72842;56.038;12.706;2024-01-07T06:23:10;102786.94;;;-3.59;56.78
83027;BME280;72842;56.038;12.706;2024-01-07T06:25:35;102793.03;;;-3.60;56.35
83027;BME280;72842;56.038;12.706;2024-01-07T06:28:01;102797.41;;;-3.61;56.86
83027;BME280;72842;56.038;12.706;2024-01-07T06:30:26;102795.63;;;-3.62;56.50
83027;BME280;72842;56.038;12.706;2024-01-07T06:32:52;102804.38;;;-3.60;56.44
83027;BME280;72842;56.038;12.706;2024-01-07T06:35:18;102800.91;;;-3.59;56.30
83027;BME280;72842;56.038;12.706;2024-01-07T06:37:43;102799.16;;;-3.60;56.45
83027;BME280;72842;56.038;12.706;2024-01-07T06:40:09;102810.50;;;-3.59;56.66
83027;BME280;72842;56.038;12.706;2024-01-07T06:42:36;102813.09;;;-3.61;57.14
83027;BME280;72842;56.038;12.706;2024-01-07T06:45:02;102811.34;;;-3.60;56.60
83027;BME280;72842;56.038;12.706;2024-01-07T06:47:28;102805.25;;;-3.61;57.06
83027;BME280;72842;56.038;12.706;2024-01-07T06:49:53;102811.34;;;-3.60;56.38
83027;BME280;72842;56.038;12.706;2024-01-07T06:52:19;102815.72;;;-3.61;56.48
83027;BME280;72842;56.038;12.706;2024-01-07T06:54:46;102807.84;;;-3.61;56.63
83027;BME280;72842;56.038;12.706;2024-01-07T06:57:11;102807.00;;;-3.60;56.89
83027;BME280;72842;56.038;12.706;2024-01-07T06:59:37;102813.97;;;-3.60;56.91
83027;BME280;72842;56.038;12.706;2024-01-07T07:02:02;102809.59;;;-3.61;56.49
83027;BME280;72842;56.038;12.706;2024-01-07T07:04:28;102814.84;;;-3.61;56.82
83027;BME280;72842;56.038;12.706;2024-01-07T07:06:53;102821.81;;;-3.60;57.14
83027;BME280;72842;56.038;12.706;2024-01-07T07:09:18;102821.81;;;-3.60;56.58
83027;BME280;72842;56.038;12.706;2024-01-07T07:11:44;102825.28;;;-3.61;56.70
83027;BME280;72842;56.038;12.706;2024-01-07T07:14:09;102825.28;;;-3.61;56.70
83027;BME280;72842;56.038;12.706;2024-01-07T07:16:35;102830.53;;;-3.61;57.16
83027;BME280;72842;56.038;12.706;2024-01-07T07:19:01;102838.38;;;-3.61;56.72
83027;BME280;72842;56.038;12.706;2024-01-07T07:21:26;102843.59;;;-3.61;56.97
83027;BME280;72842;56.038;12.706;2024-01-07T07:23:54;102846.22;;;-3.61;57.15
83027;BME280;72842;56.038;12.706;2024-01-07T07:26:20;102843.59;;;-3.63;56.63
83027;BME280;72842;56.038;12.706;2024-01-07T07:28:45;102848.84;;;-3.60;56.50
83027;BME280;72842;56.038;12.706;2024-01-07T07:31:11;102854.97;;;-3.59;57.21
83027;BME280;72842;56.038;12.706;2024-01-07T07:33:41;102856.75;;;-3.58;56.68
83027;BME280;72842;56.038;12.706;2024-01-07T07:36:07;102854.13;;;-3.58;57.39
83027;BME280;72842;56.038;12.706;2024-01-07T07:38:33;102858.50;;;-3.57;56.95
83027;BME280;72842;56.038;12.706;2024-01-07T07:40:59;102847.16;;;-3.58;57.07
83027;BME280;72842;56.038;12.706;2024-01-07T07:43:25;102855.91;;;-3.56;57.33
83027;BME280;72842;56.038;12.706;2024-01-07T07:45:51;102864.63;;;-3.55;56.75
83027;BME280;72842;56.038;12.706;2024-01-07T07:48:17;102860.28;;;-3.55;57.04
83027;BME280;72842;56.038;12.706;2024-01-07T07:50:43;102865.53;;;-3.53;57.08
83027;BME280;72842;56.038;12.706;2024-01-07T07:53:08;102864.66;;;-3.54;56.88
83027;BME280;72842;56.038;12.706;2024-01-07T07:55:34;102864.66;;;-3.52;57.13
83027;BME280;72842;56.038;12.706;2024-01-07T07:58:00;102871.69;;;-3.51;56.83
83027;BME280;72842;56.038;12.706;2024-01-07T08:00:25;102869.06;;;-3.51;57.21
83027;BME280;72842;56.038;12.706;2024-01-07T08:02:51;102869.94;;;-3.50;57.27
83027;BME280;72842;56.038;12.706;2024-01-07T08:05:17;102871.69;;;-3.49;57.28
83027;BME280;72842;56.038;12.706;2024-01-07T08:07:42;102873.44;;;-3.48;57.35
83027;BME280;72842;56.038;12.706;2024-01-07T08:10:08;102874.31;;;-3.48;56.90
83027;BME280;72842;56.038;12.706;2024-01-07T08:12:34;102871.69;;;-3.49;57.23
83027;BME280;72842;56.038;12.706;2024-01-07T08:15:00;102881.31;;;-3.47;56.84
83027;BME280;72842;56.038;12.706;2024-01-07T08:17:25;102884.81;;;-3.46;57.31
83027;BME280;72842;56.038;12.706;2024-01-07T08:19:51;102882.19;;;-3.46;57.69
83027;BME280;72842;56.038;12.706;2024-01-07T08:22:17;102894.44;;;-3.45;57.15
83027;BME280;72842;56.038;12.706;2024-01-07T08:24:42;102895.31;;;-3.45;57.70
83027;BME280;72842;56.038;12.706;2024-01-07T08:27:08;102890.09;;;-3.45;57.69
83027;BME280;72842;56.038;12.706;2024-01-07T08:29:34;102890.97;;;-3.44;57.09
83027;BME280;72842;56.038;12.706;2024-01-07T08:32:00;102898.88;;;-3.40;57.89
83027;BME280;72842;56.038;12.706;2024-01-07T08:34:26;102899.78;;;-3.39;57.74
83027;BME280;72842;56.038;12.706;2024-01-07T08:36:52;102905.00;;;-3.39;57.76
83027;BME280;72842;56.038;12.706;2024-01-07T08:39:19;102905.03;;;-3.38;57.56
83027;BME280;72842;56.038;12.706;2024-01-07T08:41:44;102901.47;;;-3.41;57.53
83027;BME280;72842;56.038;12.706;2024-01-07T08:44:10;102905.03;;;-3.36;57.22
83027;BME280;72842;56.038;12.706;2024-01-07T08:46:36;102912.03;;;-3.35;57.09
83027;BME280;72842;56.038;12.706;2024-01-07T08:49:02;102904.16;;;-3.37;57.16
83027;BME280;72842;56.038;12.706;2024-01-07T08:51:28;102914.66;;;-3.34;57.75
83027;BME280;72842;56.038;12.706;2024-01-07T08:53:54;102916.44;;;-3.33;57.73
83027;BME280;72842;56.038;12.706;2024-01-07T08:56:20;102913.81;;;-3.33;57.19
83027;BME280;72842;56.038;12.706;2024-01-07T08:58:46;102919.00;;;-3.34;57.32
83027;BME280;72842;56.038;12.706;2024-01-07T09:01:11;102910.19;;;-3.41;57.67
83027;BME280;72842;56.038;12.706;2024-01-07T09:03:36;102919.88;;;-3.34;57.38
83027;BME280;72842;56.038;12.706;2024-01-07T09:06:02;102919.00;;;-3.34;57.37
83027;BME280;72842;56.038;12.706;2024-01-07T09:08:27;102920.78;;;-3.33;57.56
83027;BME280;72842;56.038;12.706;2024-01-07T09:10:53;102922.50;;;-3.34;57.58
83027;BME280;72842;56.038;12.706;2024-01-07T09:13:18;102925.19;;;-3.32;57.53
83027;BME280;72842;56.038;12.706;2024-01-07T09:15:44;102920.81;;;-3.30;57.52
83027;BME280;72842;56.038;12.706;2024-01-07T09:18:09;102923.47;;;-3.29;57.25
83027;BME280;72842;56.038;12.706;2024-01-07T09:20:34;102926.97;;;-3.28;57.47
83027;BME280;72842;56.038;12.706;2024-01-07T09:23:00;102925.22;;;-3.28;57.15
83027;BME280;72842;56.038;12.706;2024-01-07T09:25:25;102925.22;;;-3.28;57.19
83027;BME280;72842;56.038;12.706;2024-01-07T09:27:51;102930.50;;;-3.26;57.38
83027;BME280;72842;56.038;12.706;2024-01-07T09:30:17;102929.63;;;-3.27;57.22
83027;BME280;72842;56.038;12.706;2024-01-07T09:32:43;102934.88;;;-3.25;57.58
83027;BME280;72842;56.038;12.706;2024-01-07T09:35:08;102936.63;;;-3.26;57.51
83027;BME280;72842;56.038;12.706;2024-01-07T09:37:34;102939.22;;;-3.26;57.61
83027;BME280;72842;56.038;12.706;2024-01-07T09:40:01;102938.38;;;-3.24;57.71
83027;BME280;72842;56.038;12.706;2024-01-07T09:42:26;102946.22;;;-3.24;57.54
83027;BME280;72842;56.038;12.706;2024-01-07T09:44:52;102947.09;;;-3.24;57.50
83027;BME280;72842;56.038;12.706;2024-01-07T09:47:17;102947.09;;;-3.24;57.75
83027;BME280;72842;56.038;12.706;2024-01-07T09:49:43;102950.59;;;-3.23;57.77
83027;BME280;72842;56.038;12.706;2024-01-07T09:52:10;102961.97;;;-3.21;57.72
83027;BME280;72842;56.038;12.706;2024-01-07T09:54:37;102964.56;;;-3.21;57.83
83027;BME280;72842;56.038;12.706;2024-01-07T09:57:08;102956.72;;;-3.21;57.75
83027;BME280;72842;56.038;12.706;2024-01-07T09:59:35;102961.94;;;-3.24;57.68
83027;BME280;72842;56.038;12.706;2024-01-07T10:02:02;102964.63;;;-3.18;57.65
83027;BME280;72842;56.038;12.706;2024-01-07T10:04:27;102969.00;;;-3.17;57.93
83027;BME280;72842;56.038;12.706;2024-01-07T10:06:53;102975.13;;;-3.17;57.91
83027;BME280;72842;56.038;12.706;2024-01-07T10:09:21;102972.53;;;-3.15;57.75
83027;BME280;72842;56.038;12.706;2024-01-07T10:11:47;102975.19;;;-3.14;57.72
83027;BME280;72842;56.038;12.706;2024-01-07T10:14:13;102968.22;;;-3.13;57.48
83027;BME280;72842;56.038;12.706;2024-01-07T10:16:39;102969.97;;;-3.11;57.60
83027;BME280;72842;56.038;12.706;2024-01-07T10:19:04;102973.50;;;-3.09;57.88
83027;BME280;72842;56.038;12.706;2024-01-07T10:21:30;102970.88;;;-3.09;57.86
83027;BME280;72842;56.038;12.706;2024-01-07T10:26:40;102966.56;;;-3.05;57.94
83027;BME280;72842;56.038;12.706;2024-01-07T10:29:07;102967.44;;;-3.05;58.07
83027;BME280;72842;56.038;12.706;2024-01-07T10:31:33;102963.09;;;-3.03;57.89
83027;BME280;72842;56.038;12.706;2024-01-07T10:33:59;102972.75;;;-3.02;58.10
83027;BME280;72842;56.038;12.706;2024-01-07T10:36:24;102971.88;;;-3.01;57.78
83027;BME280;72842;56.038;12.706;2024-01-07T10:38:51;102964.91;;;-2.99;58.03
83027;BME280;72842;56.038;12.706;2024-01-07T10:41:20;102949.09;;;-3.08;58.29
83027;BME280;72842;56.038;12.706;2024-01-07T10:43:48;102970.19;;;-2.97;58.02
83027;BME280;72842;56.038;12.706;2024-01-07T10:46:14;102978.09;;;-2.94;58.01
83027;BME280;72842;56.038;12.706;2024-01-07T10:48:54;102969.38;;;-2.93;58.07
83027;BME280;72842;56.038;12.706;2024-01-07T10:51:21;102970.25;;;-2.91;58.35
83027;BME280;72842;56.038;12.706;2024-01-07T10:53:52;102967.66;;;-2.89;58.10
83027;BME280;72842;56.038;12.706;2024-01-07T10:56:23;102964.16;;;-2.91;58.18
83027;BME280;72842;56.038;12.706;2024-01-07T10:58:53;102972.94;;;-2.88;58.32
83027;BME280;72842;56.038;12.706;2024-01-07T11:01:22;102973.81;;;-2.86;58.27
83027;BME280;72842;56.038;12.706;2024-01-07T11:11:59;102979.16;;;-2.80;58.64
83027;BME280;72842;56.038;12.706;2024-01-07T11:14:41;102973.06;;;-2.79;59.17
83027;BME280;72842;56.038;12.706;2024-01-07T11:17:10;102978.31;;;-2.77;58.37
83027;BME280;72842;56.038;12.706;2024-01-07T11:19:36;102974.84;;;-2.75;58.81
83027;BME280;72842;56.038;12.706;2024-01-07T11:22:31;102980.13;;;-2.73;59.03
83027;BME280;72842;56.038;12.706;2024-01-07T11:24:58;102985.38;;;-2.72;58.68
83027;BME280;72842;56.038;12.706;2024-01-07T11:27:33;102987.13;;;-2.71;59.03
83027;BME280;72842;56.038;12.706;2024-01-07T11:30:06;102988.91;;;-2.69;59.26
83027;BME280;72842;56.038;12.706;2024-01-07T11:32:34;102987.19;;;-2.67;59.09
83027;BME280;72842;56.038;12.706;2024-01-07T11:35:01;102991.56;;;-2.66;59.20
83027;BME280;72842;56.038;12.706;2024-01-07T11:37:27;102989.81;;;-2.66;58.96
83027;BME280;72842;56.038;12.706;2024-01-07T11:39:57;102986.31;;;-2.65;58.73
83027;BME280;72842;56.038;12.706;2024-01-07T11:42:23;102988.13;;;-2.64;59.17
83027;BME280;72842;56.038;12.706;2024-01-07T11:44:55;102991.63;;;-2.62;59.26
83027;BME280;72842;56.038;12.706;2024-01-07T11:47:21;102984.63;;;-2.61;58.95
83027;BME280;72842;56.038;12.706;2024-01-07T11:49:47;102987.28;;;-2.60;59.21
83027;BME280;72842;56.038;12.706;2024-01-07T11:52:14;102993.38;;;-2.59;59.14
83027;BME280;72842;56.038;12.706;2024-01-07T11:54:41;102991.66;;;-2.59;59.30
83027;BME280;72842;56.038;12.706;2024-01-07T11:57:07;102985.53;;;-2.58;59.29
83027;BME280;72842;56.038;12.706;2024-01-07T11:59:36;102985.53;;;-2.58;58.86
83027;BME280;72842;56.038;12.706;2024-01-07T12:02:04;102976.84;;;-2.57;58.90
83027;BME280;72842;56.038;12.706;2024-01-07T12:04:30;102980.28;;;-2.59;59.59
83027;BME280;72842;56.038;12.706;2024-01-07T12:06:56;102974.22;;;-2.55;59.06
83027;BME280;72842;56.038;12.706;2024-01-07T12:09:22;102969.88;;;-2.53;59.04
83027;BME280;72842;56.038;12.706;2024-01-07T12:11:47;102975.13;;;-2.53;59.70
83027;BME280;72842;56.038;12.706;2024-01-07T12:14:13;102976.03;;;-2.51;59.91
83027;BME280;72842;56.038;12.706;2024-01-07T12:16:39;102983.03;;;-2.50;59.72
83027;BME280;72842;56.038;12.706;2024-01-07T12:19:04;102972.56;;;-2.50;59.12
83027;BME280;72842;56.038;12.706;2024-01-07T12:21:30;102975.19;;;-2.50;59.04
83027;BME280;72842;56.038;12.706;2024-01-07T12:23:56;102965.56;;;-2.50;59.24
83027;BME280;72842;56.038;12.706;2024-01-07T12:26:28;102976.06;;;-2.47;59.64
83027;BME280;72842;56.038;12.706;2024-01-07T12:28:55;102970.84;;;-2.47;59.26
83027;BME280;72842;56.038;12.706;2024-01-07T12:31:23;102976.94;;;-2.46;59.34
83027;BME280;72842;56.038;12.706;2024-01-07T12:33:48;102970.00;;;-2.44;59.46
83027;BME280;72842;56.038;12.706;2024-01-07T12:36:14;102979.63;;;-2.43;59.72
83027;BME280;72842;56.038;12.706;2024-01-07T12:38:40;102977.88;;;-2.42;59.41
83027;BME280;72842;56.038;12.706;2024-01-07T12:41:06;102989.25;;;-2.42;59.66
83027;BME280;72842;56.038;12.706;2024-01-07T12:43:32;102988.38;;;-2.41;59.25
83027;BME280;72842;56.038;12.706;2024-01-07T12:45:57;102992.75;;;-2.41;59.63